Time;durP1;ratioP1;P1;durP2;ratioP2;P2;SDS_P1;SDS_P2;PMS_P1;PMS_P2;Temp;Humidity;BMP_temperature;BMP_pressure;BME280_temperature;BME280_humidity;BME280_pressure;Samples;Min_cycle;Max_cycle;Signal;HPM_P1;HPM_P2
2022/06/03 00:01:41;;;;;;;11.68;7.37;;;;;;;19.37;79.48;99378.00;1803580;78;21038;-79
2022/06/03 00:04:23;;;;;;;17.60;7.12;;;;;;;19.39;80.47;99377.45;1810418;77;21023;-79
2022/06/03 00:07:27;;;;;;;15.80;6.72;;;;;;;19.38;78.55;99374.92;1818266;78;21002;-79
2022/06/03 00:10:24;;;;;;;17.30;7.00;;;;;;;19.39;80.40;99371.33;1807275;77;21479;-78
2022/06/03 00:13:11;;;;;;;21.27;6.87;;;;;;;19.37;80.00;99365.30;1785513;79;21586;-78
2022/06/03 00:15:48;;;;;;;14.28;7.10;;;;;;;19.34;80.30;99361.50;1798970;78;20996;-77
2022/06/03 00:18:40;;;;;;;17.57;7.45;;;;;;;19.28;79.42;99369.31;1823624;77;21558;-79
2022/06/03 00:21:28;;;;;;;15.03;7.55;;;;;;;19.18;78.84;99373.38;1815195;77;21599;-77
2022/06/03 00:24:18;;;;;;;13.28;6.65;;;;;;;19.08;80.04;99375.23;1830513;77;20987;-78
2022/06/03 00:27:09;;;;;;;14.03;7.15;;;;;;;19.00;80.65;99375.26;1823854;77;21062;-81
2022/06/03 00:30:19;;;;;;;15.68;8.23;;;;;;;18.96;81.86;99375.05;1830852;78;21071;-78
2022/06/03 00:33:09;;;;;;;18.75;10.05;;;;;;;18.91;80.04;99386.33;1815425;77;20980;-79
2022/06/03 00:35:56;;;;;;;17.82;9.13;;;;;;;18.85;79.88;99383.08;1818945;78;21034;-79
2022/06/03 00:39:06;;;;;;;17.02;9.00;;;;;;;18.82;80.30;99390.29;1789638;78;21007;-79
2022/06/03 00:41:54;;;;;;;17.27;9.15;;;;;;;18.79;80.56;99384.73;1816602;78;21594;-79
2022/06/03 00:44:44;;;;;;;15.85;8.70;;;;;;;18.78;80.80;99384.33;1825296;78;21015;-79
2022/06/03 00:47:42;;;;;;;17.23;9.65;;;;;;;18.78;80.91;99386.09;1803572;78;21000;-79
2022/06/03 00:50:35;;;;;;;17.98;8.45;;;;;;;18.77;81.83;99376.03;1787506;77;21004;-78
2022/06/03 00:53:27;;;;;;;16.37;8.30;;;;;;;18.78;81.41;99379.06;1815618;77;21023;-80
2022/06/03 00:56:41;;;;;;;13.80;8.33;;;;;;;18.77;81.06;99381.77;1825163;77;20956;-79
2022/06/03 00:59:53;;;;;;;14.95;8.45;;;;;;;18.76;81.97;99383.56;1813982;78;20990;-79
2022/06/03 01:02:34;;;;;;;18.15;8.55;;;;;;;18.77;82.28;99383.94;1719611;83;21016;-80
2022/06/03 01:05:33;;;;;;;14.63;8.85;;;;;;;18.78;83.41;99381.70;1710187;81;20984;-80
2022/06/03 01:08:22;;;;;;;14.43;8.68;;;;;;;18.78;82.55;99375.55;1797150;79;20974;-79
2022/06/03 01:11:14;;;;;;;12.82;8.48;;;;;;;18.78;82.54;99373.80;1787470;80;21095;-80
2022/06/03 01:14:23;;;;;;;13.93;9.65;;;;;;;18.74;81.97;99374.90;1803526;79;21038;-79
2022/06/03 01:17:27;;;;;;;17.45;9.25;;;;;;;18.71;81.76;99380.31;1787036;79;21047;-78
2022/06/03 01:20:31;;;;;;;12.95;8.73;;;;;;;18.60;81.28;99378.27;1805904;79;21038;-78
2022/06/03 01:23:20;;;;;;;19.50;9.53;;;;;;;18.57;81.61;99374.95;1775819;80;20992;-78
2022/06/03 01:26:13;;;;;;;14.98;9.70;;;;;;;18.52;81.25;99376.48;1815555;79;21065;-79
2022/06/03 01:29:20;;;;;;;17.15;8.78;;;;;;;18.42;80.23;99381.42;1765746;81;21492;-78
2022/06/03 01:32:24;;;;;;;19.35;9.28;;;;;;;18.35;81.29;99389.24;1810860;79;21562;-78
2022/06/03 01:35:28;;;;;;;15.13;8.98;;;;;;;18.31;81.31;99390.81;1770526;80;21012;-78
2022/06/03 01:38:12;;;;;;;15.70;8.70;;;;;;;18.18;81.90;99395.84;1783499;79;21566;-78
2022/06/03 01:41:14;;;;;;;12.47;7.85;;;;;;;18.09;81.18;99395.39;1765988;81;21047;-80
2022/06/03 01:44:10;;;;;;;17.57;9.13;;;;;;;18.06;81.58;99401.27;1771015;80;21047;-79
2022/06/03 01:47:16;;;;;;;14.90;8.58;;;;;;;18.02;81.62;99403.67;1798090;79;20975;-79
2022/06/03 01:50:22;;;;;;;17.50;9.20;;;;;;;17.95;81.75;99411.50;1783262;80;21023;-78
2022/06/03 01:53:03;;;;;;;16.73;8.23;;;;;;;17.90;81.66;99413.02;1786927;79;20990;-78
2022/06/03 01:56:09;;;;;;;16.35;8.13;;;;;;;17.91;81.96;99416.06;1756014;79;20986;-78
2022/06/03 01:58:56;;;;;;;17.20;8.68;;;;;;;17.91;81.67;99409.48;1793457;79;21551;-79
2022/06/03 02:01:50;;;;;;;22.05;8.63;;;;;;;17.92;81.73;99416.43;1826754;77;21007;-77
2022/06/03 02:04:50;;;;;;;14.05;7.45;;;;;;;17.94;81.89;99411.94;1816467;77;21479;-77
2022/06/03 02:07:44;;;;;;;14.87;8.18;;;;;;;17.93;82.26;99407.63;1822375;79;21480;-79
2022/06/03 02:10:49;;;;;;;15.30;8.25;;;;;;;17.95;82.90;99412.34;1806929;79;20975;-78
2022/06/03 02:13:45;;;;;;;15.03;7.37;;;;;;;17.92;81.07;99415.11;1822640;78;21027;-80
2022/06/03 02:16:49;;;;;;;11.65;7.30;;;;;;;17.86;81.32;99408.38;1809939;78;20990;-78
2022/06/03 02:19:43;;;;;;;13.72;7.20;;;;;;;17.90;81.83;99418.28;1820357;78;21047;-78
2022/06/03 02:23:02;;;;;;;17.60;9.05;;;;;;;17.90;82.28;99414.34;1808217;79;20975;-78
2022/06/03 02:25:46;;;;;;;17.20;8.98;;;;;;;17.91;82.17;99423.95;1812832;78;21114;-78
2022/06/03 02:28:30;;;;;;;16.48;8.93;;;;;;;17.92;81.96;99425.63;1747645;80;21027;-79
2022/06/03 02:31:38;;;;;;;17.92;8.73;;;;;;;17.92;80.65;99431.37;1800725;79;21075;-80
2022/06/03 02:34:13;;;;;;;17.05;8.73;;;;;;;17.85;81.06;99438.72;1820623;78;21043;-78
2022/06/03 02:37:28;;;;;;;20.02;9.60;;;;;;;17.78;81.47;99436.80;1799728;78;21005;-79
2022/06/03 02:40:30;;;;;;;17.20;9.75;;;;;;;17.77;81.34;99447.42;1782287;78;21427;-80
2022/06/03 02:43:05;;;;;;;15.13;9.45;;;;;;;17.69;81.95;99444.70;1795650;79;21014;-78
2022/06/03 02:45:55;;;;;;;22.15;10.25;;;;;;;17.62;81.71;99451.64;1745933;78;20947;-78
2022/06/03 02:48:55;;;;;;;14.98;9.43;;;;;;;17.53;81.75;99449.00;1799004;78;20991;-78
2022/06/03 02:51:47;;;;;;;17.00;10.32;;;;;;;17.48;82.24;99443.94;1788787;78;20983;-77
2022/06/03 02:54:24;;;;;;;18.15;10.05;;;;;;;17.46;81.78;99449.73;1777409;78;21006;-77
2022/06/03 02:57:05;;;;;;;19.75;9.33;;;;;;;17.43;81.10;99455.62;1794135;79;21022;-78
2022/06/03 03:00:16;;;;;;;16.20;9.13;;;;;;;17.42;81.52;99455.22;1777566;78;21522;-79
2022/06/03 03:03:17;;;;;;;18.50;9.93;;;;;;;17.38;81.70;99456.30;1788712;79;21014;-78
2022/06/03 03:06:21;;;;;;;20.90;8.95;;;;;;;17.37;81.29;99450.63;1786605;79;20983;-78
2022/06/03 03:09:15;;;;;;;17.35;9.13;;;;;;;17.38;82.38;99451.04;1780562;79;20995;-79
2022/06/03 03:12:02;;;;;;;21.87;9.47;;;;;;;17.38;82.91;99452.35;1774173;78;21109;-79
2022/06/03 03:15:01;;;;;;;19.40;9.20;;;;;;;17.38;82.92;99455.83;1782123;78;22337;-78
2022/06/03 03:17:54;;;;;;;23.98;9.03;;;;;;;17.40;83.82;99461.02;1788081;78;21039;-78
2022/06/03 03:21:18;;;;;;;20.82;8.80;;;;;;;17.36;84.39;99456.83;1813526;78;21039;-78
2022/06/03 03:24:22;;;;;;;15.18;9.70;;;;;;;17.38;84.21;99461.55;1824298;78;21034;-80
2022/06/03 03:27:28;;;;;;;18.00;9.05;;;;;;;17.45;84.17;99461.66;1826133;78;21483;-79
2022/06/03 03:30:15;;;;;;;17.52;8.70;;;;;;;17.48;84.53;99464.12;1823054;78;21031;-79
2022/06/03 03:32:50;;;;;;;16.65;8.88;;;;;;;17.55;84.66;99465.98;1810771;77;21008;-79
2022/06/03 03:36:06;;;;;;;20.90;8.73;;;;;;;17.57;84.15;99470.73;1816451;78;20999;-78
2022/06/03 03:39:30;;;;;;;16.00;9.10;;;;;;;17.60;84.28;99467.48;1825645;78;21002;-79
2022/06/03 03:42:23;;;;;;;15.68;8.60;;;;;;;17.69;83.80;99467.05;1830790;78;21027;-78
2022/06/03 03:45:20;;;;;;;22.35;9.75;;;;;;;17.77;83.57;99470.62;1810911;78;21039;-78
2022/06/03 03:48:42;;;;;;;17.73;9.00;;;;;;;17.84;83.79;99467.25;1833321;78;21599;-79
2022/06/03 03:51:32;;;;;;;17.07;9.80;;;;;;;17.95;83.88;99476.79;1829605;78;20975;-79
2022/06/03 03:54:24;;;;;;;14.65;7.33;;;;;;;18.06;84.53;99471.86;1828839;78;21063;-79
2022/06/03 03:56:59;;;;;;;14.07;7.42;;;;;;;18.15;84.76;99473.64;1849331;76;21037;-79
2022/06/03 03:59:57;;;;;;;20.02;7.70;;;;;;;18.22;84.06;99473.25;1727309;80;21019;-79
2022/06/03 04:02:54;;;;;;;19.77;7.53;;;;;;;18.32;84.24;99475.40;1802532;78;21062;-79
2022/06/03 04:06:12;;;;;;;24.60;8.23;;;;;;;18.38;84.68;99478.59;1818216;78;21542;-78
2022/06/03 04:09:19;;;;;;;19.15;8.63;;;;;;;18.46;84.92;99480.80;1737829;81;20991;-79
2022/06/03 04:11:56;;;;;;;16.37;9.05;;;;;;;18.46;83.97;99481.67;1736677;81;21042;-79
2022/06/03 04:15:03;;;;;;;14.53;8.80;;;;;;;18.52;84.43;99480.48;1810564;78;21003;-82
2022/06/03 04:18:04;;;;;;;14.75;8.85;;;;;;;18.60;84.07;99489.30;1814788;78;21522;-80
2022/06/03 04:21:08;;;;;;;17.00;9.43;;;;;;;18.66;83.55;99480.64;1829417;78;20984;-79
2022/06/03 04:24:01;;;;;;;;;;;;;;;18.67;83.17;99481.02;1810084;77;22130;-83
2022/06/03 04:26:41;;;;;;;18.00;10.30;;;;;;;18.72;83.58;99486.50;1821188;78;20175;-79
2022/06/03 04:29:37;;;;;;;18.15;10.20;;;;;;;18.76;82.37;99486.72;1817136;78;20995;-80
2022/06/03 04:32:31;;;;;;;18.00;10.03;;;;;;;18.77;81.02;99495.87;1818873;77;21134;-79
2022/06/03 04:35:27;;;;;;;23.42;10.58;;;;;;;18.75;82.19;99503.00;1821574;78;20979;-79
2022/06/03 04:38:09;;;;;;;21.57;9.25;;;;;;;18.82;82.21;99493.02;1781703;80;20959;-78
2022/06/03 04:41:07;;;;;;;23.83;9.60;;;;;;;18.87;81.75;99499.75;1824028;77;20984;-79
2022/06/03 04:44:02;;;;;;;18.30;9.30;;;;;;;18.99;82.15;99499.56;1794268;78;20995;-79
2022/06/03 04:47:00;;;;;;;18.17;9.98;;;;;;;19.13;81.86;99501.46;1823031;78;21074;-79
2022/06/03 04:49:38;;;;;;;18.62;9.28;;;;;;;19.28;81.60;99499.80;1831489;78;22229;-80
2022/06/03 04:52:44;;;;;;;17.57;9.45;;;;;;;19.43;81.09;99494.98;1828404;77;21008;-79
2022/06/03 04:56:03;;;;;;;19.50;10.43;;;;;;;19.57;80.65;99504.76;1828432;78;21047;-79
2022/06/03 04:59:03;;;;;;;21.70;10.90;;;;;;;19.77;80.28;99504.15;1808898;78;21016;-79
2022/06/03 05:02:15;;;;;;;16.85;9.95;;;;;;;19.95;79.45;99509.69;1805349;77;20984;-78
2022/06/03 05:05:15;;;;;;;15.55;9.78;;;;;;;20.09;79.02;99511.53;1713632;83;21492;-79
2022/06/03 05:08:36;;;;;;;20.35;10.98;;;;;;;20.20;78.56;99514.41;1817021;77;21107;-78
2022/06/03 05:11:46;;;;;;;17.02;9.68;;;;;;;20.27;78.06;99522.81;1802566;78;21594;-79
2022/06/03 05:14:59;;;;;;;21.45;10.10;;;;;;;20.28;77.37;99518.41;1830541;78;21026;-78
2022/06/03 05:18:04;;;;;;;22.27;10.85;;;;;;;20.23;77.03;99520.85;1797352;78;21492;-78
2022/06/03 05:20:47;;;;;;;21.07;10.08;;;;;;;20.26;76.76;99523.77;1815836;78;21012;-79
2022/06/03 05:23:48;;;;;;;19.95;11.65;;;;;;;20.23;76.58;99527.45;1783039;79;21070;-79
2022/06/03 05:26:36;;;;;;;19.60;10.43;;;;;;;20.28;76.07;99527.17;1804248;79;21031;-79
2022/06/03 05:29:35;;;;;;;14.80;9.55;;;;;;;20.22;76.41;99528.85;1758845;80;21530;-79
2022/06/03 05:32:30;;;;;;;21.12;10.65;;;;;;;20.28;76.48;99533.77;1755720;78;20980;-80
2022/06/03 05:35:13;;;;;;;20.82;10.98;;;;;;;20.33;76.37;99533.02;1813984;78;21160;-79
2022/06/03 05:37:52;;;;;;;;;;;;;;;20.38;76.45;99536.25;1788010;79;20961;-78
2022/06/03 05:40:33;;;;;;;18.95;10.18;;;;;;;20.49;76.25;99536.09;1813065;79;20145;-79
2022/06/03 05:43:23;;;;;;;23.75;12.13;;;;;;;20.62;76.58;99532.66;1822781;79;21000;-81
2022/06/03 05:46:15;;;;;;;29.52;16.65;;;;;;;20.77;76.69;99537.52;1812608;78;21562;-78
2022/06/03 05:49:20;;;;;;;21.45;10.90;;;;;;;20.97;76.62;99534.98;1790676;79;21059;-79
2022/06/03 05:52:29;;;;;;;18.62;10.08;;;;;;;21.12;75.98;99534.50;1814746;79;20956;-79
2022/06/03 05:55:40;;;;;;;17.37;10.58;;;;;;;21.23;75.64;99537.34;1737548;81;21742;-79
2022/06/03 05:58:31;;;;;;;20.55;10.63;;;;;;;21.32;75.01;99539.86;1740653;82;20993;-79
2022/06/03 06:01:42;;;;;;;21.35;10.55;;;;;;;21.37;74.26;99541.77;1790968;78;21083;-78
2022/06/03 06:04:55;;;;;;;18.52;9.65;;;;;;;21.38;74.30;99542.13;1831660;77;20975;-78
2022/06/03 06:07:56;;;;;;;22.20;10.55;;;;;;;21.47;73.57;99547.36;1812996;78;21003;-79
2022/06/03 06:11:00;;;;;;;20.10;10.38;;;;;;;21.51;73.71;99547.55;1817472;78;21062;-79
2022/06/03 06:13:56;;;;;;;19.77;11.05;;;;;;;21.60;73.35;99550.91;1846778;76;21474;-79
2022/06/03 06:16:41;;;;;;;21.37;10.85;;;;;;;21.68;73.07;99546.45;1829418;77;21038;-81
2022/06/03 06:19:22;;;;;;;20.30;11.88;;;;;;;21.71;72.87;99544.11;1832661;76;21043;-81
2022/06/03 06:22:11;;;;;;;22.05;11.12;;;;;;;21.78;72.47;99549.36;1825744;76;21525;-84
2022/06/03 06:24:51;;;;;;;17.57;11.35;;;;;;;21.83;72.38;99541.98;1842052;77;20983;-84
2022/06/03 06:27:43;;;;;;;15.72;10.08;;;;;;;21.85;72.37;99544.06;1833025;77;21053;-86
2022/06/03 06:30:23;;;;;;;20.00;10.10;;;;;;;21.95;72.46;99543.84;1832938;77;20954;-85
2022/06/03 06:33:29;;;;;;;17.70;8.95;;;;;;;22.05;71.56;99546.25;1832770;76;20941;-84
2022/06/03 06:36:38;;;;;;;14.40;7.85;;;;;;;22.13;71.64;99552.37;1847350;76;20983;-84
2022/06/03 06:39:22;;;;;;;9.55;6.15;;;;;;;22.19;70.99;99545.83;1768615;79;21032;-85
2022/06/03 06:42:13;;;;;;;13.50;7.53;;;;;;;22.30;70.80;99538.03;1765973;80;20979;-82
2022/06/03 06:45:12;;;;;;;13.15;7.90;;;;;;;22.40;70.78;99541.80;1709148;80;21042;-82
2022/06/03 06:47:48;;;;;;;14.10;7.40;;;;;;;22.49;70.62;99536.34;1815633;77;21816;-82
2022/06/03 06:50:36;;;;;;;13.95;7.42;;;;;;;22.56;70.05;99536.77;1828847;77;21045;-83
2022/06/03 06:53:32;;;;;;;17.30;9.35;;;;;;;22.60;69.51;99536.47;1830811;76;21031;-83
2022/06/03 06:56:33;;;;;;;16.27;10.05;;;;;;;22.77;69.73;99541.09;1836904;76;21023;-84
2022/06/03 06:59:22;;;;;;;15.88;8.50;;;;;;;22.94;69.36;99550.52;1824542;76;21560;-84
2022/06/03 07:01:57;;;;;;;24.05;8.83;;;;;;;23.04;69.36;99537.05;1823262;77;21544;-84
2022/06/03 07:04:31;;;;;;;14.15;7.85;;;;;;;23.17;68.74;99540.52;1834891;77;20999;-85
2022/06/03 07:07:33;;;;;;;14.68;7.92;;;;;;;23.29;68.79;99540.62;1843191;77;21439;-84
2022/06/03 07:10:08;;;;;;;15.95;8.08;;;;;;;23.38;68.55;99538.66;1830311;77;21024;-84
2022/06/03 07:12:42;;;;;;;14.23;8.15;;;;;;;23.49;67.94;99544.50;1827455;77;21368;-83
2022/06/03 07:15:25;;;;;;;13.22;7.33;;;;;;;23.54;67.92;99545.03;1833414;77;20985;-82
2022/06/03 07:21:12;;;;;;;15.38;8.18;;;;;;;23.62;67.00;99547.49;1820921;77;21029;-83
2022/06/03 07:23:53;;;;;;;13.65;7.37;;;;;;;23.66;66.73;99538.84;1833272;77;21034;-83
2022/06/03 07:26:33;;;;;;;12.28;6.17;;;;;;;23.72;66.77;99539.72;1834504;77;21053;-86
2022/06/03 07:29:14;;;;;;;12.82;6.80;;;;;;;23.84;66.61;99541.99;1844799;76;21007;-83
2022/06/03 07:32:02;;;;;;;12.63;6.40;;;;;;;23.91;66.04;99548.53;1840480;77;20968;-83
2022/06/03 07:34:43;;;;;;;9.78;5.97;;;;;;;23.98;65.49;99538.33;1831915;76;20973;-85
2022/06/03 07:37:21;;;;;;;13.93;6.15;;;;;;;24.13;65.48;99545.17;1838938;76;20921;-81
2022/06/03 07:40:02;;;;;;;10.45;5.78;;;;;;;24.18;64.62;99550.13;1813376;76;20998;-85
2022/06/03 07:42:49;;;;;;;12.95;5.78;;;;;;;24.28;65.49;99549.80;1839086;76;21044;-85
2022/06/03 07:45:52;;;;;;;51.18;33.10;;;;;;;24.43;65.00;99559.75;1849895;77;21066;-84
2022/06/03 07:48:22;;;;;;;10.68;5.67;;;;;;;24.58;65.07;99551.14;1842406;77;21038;-86
2022/06/03 07:51:22;;;;;;;8.65;6.17;;;;;;;24.78;64.43;99545.13;1836720;76;20999;-83
2022/06/03 07:56:49;;;;;;;10.50;5.30;;;;;;;25.21;63.94;99546.28;1643587;86;21157;-83
2022/06/03 07:59:20;;;;;;;11.08;6.15;;;;;;;25.40;63.34;99550.52;1662751;82;20998;-86
2022/06/03 08:02:04;;;;;;;9.80;5.50;;;;;;;25.58;61.04;99554.85;1707861;82;21132;-86
2022/06/03 08:04:35;;;;;;;8.60;5.15;;;;;;;25.59;61.74;99555.23;1669331;84;21013;-80
2022/06/03 08:12:39;;;;;;;12.37;4.75;;;;;;;25.93;60.64;99557.02;1668953;84;21096;-84
2022/06/03 08:15:20;;;;;;;8.48;4.47;;;;;;;25.87;58.42;99547.67;1666906;84;21039;-85
2022/06/03 08:17:50;;;;;;;9.58;4.55;;;;;;;25.95;59.29;99549.74;1654557;85;21535;-79
2022/06/03 08:20:23;;;;;;;7.92;4.80;;;;;;;26.10;59.27;99555.61;1665325;86;21016;-86
2022/06/03 08:22:51;;;;;;;9.18;4.97;;;;;;;26.24;58.29;99552.64;1669654;86;21060;-82
2022/06/03 08:25:24;;;;;;;8.68;4.67;;;;;;;26.31;58.24;99559.17;1637194;86;21795;-88
2022/06/03 08:27:52;;;;;;;;;;;;;;;26.39;58.62;99554.04;1639798;87;21040;-86
2022/06/03 08:30:23;;;;;;;9.75;4.50;;;;;;;26.48;58.12;99544.91;1665385;86;20155;-85
2022/06/03 08:33:11;;;;;;;12.30;4.57;;;;;;;26.60;58.70;99541.27;1655338;80;21047;31
2022/06/03 08:35:48;;;;;;;9.48;4.70;;;;;;;26.78;58.45;99541.52;1703771;83;21098;-91
2022/06/03 08:38:30;;;;;;;5.90;3.80;;;;;;;26.96;57.49;99541.75;1696285;80;21067;-86
2022/06/03 08:41:10;;;;;;;8.60;4.30;;;;;;;26.86;55.24;99536.83;1677842;84;21136;-88
2022/06/03 08:44:16;;;;;;;7.85;4.42;;;;;;;26.88;53.78;99535.74;1683421;84;21338;-83
2022/06/03 08:47:00;;;;;;;7.20;4.30;;;;;;;26.82;54.03;99536.27;1701110;83;21178;-85
2022/06/03 08:49:31;;;;;;;8.85;4.62;;;;;;;26.81;55.70;99533.73;1704419;83;21078;-85
2022/06/03 08:52:03;;;;;;;10.60;4.75;;;;;;;26.93;55.25;99532.17;1705952;82;21012;-85
2022/06/03 08:54:48;;;;;;;9.65;4.90;;;;;;;26.98;55.67;99534.45;1697964;83;21007;-85
2022/06/03 08:57:31;;;;;;;9.33;5.22;;;;;;;27.07;54.21;99536.31;1704146;83;21054;-85
2022/06/03 09:00:10;;;;;;;7.60;4.20;;;;;;;27.20;54.57;99542.77;1691863;83;21028;-83
2022/06/03 09:02:48;;;;;;;8.03;4.85;;;;;;;27.24;55.48;99544.23;1698876;83;21042;-84
2022/06/03 09:05:32;;;;;;;9.50;4.95;;;;;;;27.39;55.25;99542.02;1684314;83;21076;-85
2022/06/03 09:08:04;;;;;;;8.43;4.33;;;;;;;27.56;52.61;99537.88;1705007;83;21083;-87
2022/06/03 09:10:45;;;;;;;8.40;3.87;;;;;;;27.66;53.98;99538.73;1663278;83;21094;-86
2022/06/03 09:13:26;;;;;;;7.22;4.75;;;;;;;27.70;53.43;99532.13;1733137;83;21070;-90
2022/06/03 09:15:54;;;;;;;9.03;4.62;;;;;;;27.71;52.93;99539.14;1699551;82;21547;-87
2022/06/03 09:18:50;;;;;;;10.53;4.50;;;;;;;27.70;52.84;99540.64;1711475;83;21134;-86
2022/06/03 09:21:27;;;;;;;9.50;4.90;;;;;;;27.60;52.77;99536.61;1708384;83;21081;-86
2022/06/03 09:24:02;;;;;;;11.53;4.95;;;;;;;27.56;52.49;99538.70;1710947;83;21112;-88
2022/06/03 09:26:37;;;;;;;12.37;4.25;;;;;;;27.56;52.33;99549.88;1668789;83;22342;-85
2022/06/03 09:29:06;;;;;;;9.60;4.30;;;;;;;27.53;51.37;99541.63;1680902;84;21040;-83
2022/06/03 09:31:36;;;;;;;15.03;8.13;;;;;;;27.60;52.17;99539.28;1676734;84;21040;-87
2022/06/03 09:34:06;;;;;;;11.57;5.33;;;;;;;27.63;51.70;99535.48;1671422;84;21048;-77
2022/06/03 09:36:34;;;;;;;8.08;4.42;;;;;;;27.73;52.48;99532.34;1674760;84;21025;-86
2022/06/03 09:39:10;;;;;;;9.53;4.55;;;;;;;27.80;51.70;99540.16;1676081;84;21033;-89
2022/06/03 09:41:49;;;;;;;10.30;4.87;;;;;;;27.76;51.54;99538.75;1686140;84;21101;-89
2022/06/03 09:44:19;;;;;;;7.08;3.87;;;;;;;27.80;51.31;99533.98;1669743;84;21039;-83
2022/06/03 09:47:10;;;;;;;8.70;4.78;;;;;;;27.73;51.07;99538.52;1677694;81;21104;31
2022/06/03 09:49:38;;;;;;;6.65;4.45;;;;;;;27.73;51.55;99531.84;1673030;83;21081;-80
2022/06/03 09:52:12;;;;;;;10.23;4.85;;;;;;;27.79;51.60;99534.45;1711292;82;21218;-79
2022/06/03 09:54:42;;;;;;;9.43;4.58;;;;;;;27.80;51.69;99533.98;1709879;83;21009;-78
2022/06/03 09:57:40;;;;;;;15.23;4.80;;;;;;;27.91;52.19;99533.88;1689371;84;21043;-79
2022/06/03 10:00:22;;;;;;;6.80;4.30;;;;;;;27.99;51.65;99534.02;1651965;84;21029;-79
2022/06/03 10:02:49;;;;;;;10.32;4.28;;;;;;;27.99;50.51;99518.48;1694343;84;21052;-79
2022/06/03 10:05:18;;;;;;;12.43;4.90;;;;;;;28.15;51.77;99526.78;1701138;84;21581;-79
2022/06/03 10:07:51;;;;;;;13.15;4.67;;;;;;;28.25;50.94;99533.00;1699641;82;21000;-79
2022/06/03 10:13:08;;;;;;;10.00;5.10;;;;;;;28.51;51.20;99533.75;1696531;82;21077;-79
2022/06/03 10:15:42;;;;;;;8.80;4.50;;;;;;;28.65;51.00;99529.31;1698921;83;21032;-78
2022/06/03 10:18:33;;;;;;;8.35;4.83;;;;;;;28.79;49.83;99525.34;1700510;84;21554;-79
2022/06/03 10:21:11;;;;;;;7.45;4.55;;;;;;;28.92;49.65;99525.01;1704460;84;21031;-81
2022/06/03 10:23:57;;;;;;;7.60;4.30;;;;;;;28.98;49.50;99529.77;1697735;84;21090;-80
2022/06/03 10:26:49;;;;;;;6.08;4.28;;;;;;;29.08;49.32;99525.23;1702785;83;21715;-80
2022/06/03 10:29:22;;;;;;;;;;;;;;;29.18;49.40;99521.20;1704141;83;21672;-79
2022/06/03 10:31:57;;;;;;;7.50;4.08;;;;;;;29.33;48.25;99514.88;1699682;84;20477;-78
2022/06/03 10:34:30;;;;;;;8.38;4.75;;;;;;;29.39;48.49;99526.84;1702843;83;21083;-79
2022/06/03 10:36:58;;;;;;;6.75;4.40;;;;;;;29.52;48.77;99513.91;1661116;82;21031;-82
2022/06/03 10:39:30;;;;;;;6.50;3.72;;;;;;;29.67;48.34;99512.42;1675423;83;21124;-79
2022/06/03 10:41:59;;;;;;;5.37;3.70;;;;;;;29.83;47.78;99514.96;1700185;83;21051;-79
2022/06/03 10:44:38;;;;;;;8.20;4.10;;;;;;;29.97;47.44;99512.25;1710477;84;21872;-81
2022/06/03 10:47:15;;;;;;;12.95;4.35;;;;;;;30.13;43.94;99505.69;1710181;82;21027;-80
2022/06/03 10:49:56;;;;;;;7.87;4.15;;;;;;;30.19;45.61;99506.91;1666953;84;21039;-79
2022/06/03 11:01:25;;;;;;;6.83;3.77;;;;;;;30.33;44.97;99493.81;1699441;83;21059;-78
2022/06/03 11:03:54;;;;;;;9.18;4.15;;;;;;;30.53;44.29;99490.94;1711715;82;21020;-78
2022/06/03 11:06:29;;;;;;;6.30;3.70;;;;;;;30.74;42.61;99495.95;1669679;84;21126;-80
2022/06/03 11:08:59;;;;;;;6.17;3.47;;;;;;;30.89;43.40;99495.71;1698298;83;21095;-86
2022/06/03 11:11:53;;;;;;;5.25;3.02;;;;;;;31.09;42.12;99489.59;1711278;82;21012;-79
2022/06/03 11:14:32;;;;;;;9.23;3.72;;;;;;;31.23;41.06;99488.66;1660428;84;21036;-78
2022/06/03 11:17:22;;;;;;;8.15;6.37;;;;;;;31.19;41.42;99479.24;1708290;82;21082;-78
2022/06/03 11:19:56;;;;;;;7.53;3.65;;;;;;;31.29;41.41;99474.58;1707716;82;21019;-77
2022/06/03 11:22:34;;;;;;;7.53;3.77;;;;;;;31.38;39.47;99470.92;1693407;83;21023;-78
2022/06/03 11:25:10;;;;;;;8.10;3.90;;;;;;;31.41;40.61;99472.43;1708214;83;21071;-78
2022/06/03 11:28:08;;;;;;;7.35;3.70;;;;;;;31.41;39.17;99475.95;1711499;82;21067;-77
2022/06/03 11:30:46;;;;;;;5.92;3.67;;;;;;;31.47;37.80;99473.15;1708194;82;21088;-75
2022/06/03 11:33:40;;;;;;;9.20;3.65;;;;;;;31.51;39.28;99472.67;1355857;82;9999971;-76
2022/06/03 11:36:41;;;;;;;8.93;3.60;;;;;;;31.63;39.42;99464.28;1323795;85;10000736;-73
2022/06/03 11:39:49;;;;;;;6.77;3.43;;;;;;;31.78;37.42;99461.80;1395910;86;10000424;-73
2022/06/03 11:42:36;;;;;;;4.97;3.25;;;;;;;31.90;38.72;99450.54;1623734;86;21117;-73
2022/06/03 11:45:22;;;;;;;7.53;3.60;;;;;;;32.00;38.00;99458.95;1610393;88;21113;-78
2022/06/03 11:48:23;;;;;;;9.20;3.77;;;;;;;32.07;37.93;99453.25;1603366;87;21649;-74
2022/06/03 11:50:50;;;;;;;6.15;3.95;;;;;;;32.11;36.20;99443.84;1417021;83;10000095;-73
2022/06/03 11:53:24;;;;;;;6.28;3.40;;;;;;;32.05;36.22;99444.03;1650531;85;21078;-73
2022/06/03 11:55:53;;;;;;;6.97;3.30;;;;;;;32.23;37.24;99441.16;1676793;83;21055;-74
2022/06/03 11:58:25;;;;;;;7.20;3.25;;;;;;;32.42;35.94;99449.36;1681719;83;21207;-73
2022/06/03 12:01:02;;;;;;;8.03;3.42;;;;;;;32.43;35.26;99445.67;1677477;83;21618;-74
2022/06/03 12:03:40;;;;;;;10.48;3.45;;;;;;;32.53;36.40;99448.18;1675926;83;21031;-73
2022/06/03 12:06:14;;;;;;;7.28;3.70;;;;;;;32.75;36.03;99443.08;1671047;85;21024;-74
2022/06/03 12:09:09;;;;;;;5.72;3.85;;;;;;;32.83;34.93;99443.08;1674177;83;21040;-73
2022/06/03 12:14:38;;;;;;;7.72;3.72;;;;;;;33.35;35.22;99439.83;1656755;85;21021;-74
2022/06/03 12:17:13;;;;;;;6.67;3.60;;;;;;;33.83;33.82;99435.66;1655166;85;21092;-74
2022/06/03 12:19:45;;;;;;;4.87;3.22;;;;;;;34.13;33.74;99433.88;1656582;85;21653;-74
2022/06/03 12:22:35;;;;;;;9.45;3.60;;;;;;;34.71;33.27;99436.05;1659666;85;21050;-74
2022/06/03 12:25:05;;;;;;;7.35;3.20;;;;;;;35.07;31.91;99428.00;1655002;85;20983;-74
2022/06/03 12:27:37;;;;;;;7.30;3.30;;;;;;;35.50;32.54;99420.52;1655139;85;21003;-75
2022/06/03 12:30:27;;;;;;;5.53;3.35;;;;;;;36.23;31.78;99418.50;1652586;85;21555;-73
2022/06/03 12:33:04;;;;;;;7.45;3.45;;;;;;;37.10;31.70;99417.13;1652947;85;21146;-77
2022/06/03 12:35:54;;;;;;;5.15;3.37;;;;;;;38.00;29.13;99412.34;1619279;86;21019;-77
2022/06/03 12:38:29;;;;;;;6.17;3.42;;;;;;;38.82;29.23;99391.65;1654474;85;21586;-74
2022/06/03 12:41:01;;;;;;;5.22;3.00;;;;;;;39.84;28.90;99414.83;1659846;85;21019;-74
2022/06/03 12:43:47;;;;;;;6.08;3.37;;;;;;;40.34;27.10;99416.73;1677557;83;21045;-75
2022/06/03 12:46:42;;;;;;;8.38;3.12;;;;;;;40.85;26.87;99419.66;1659517;85;21051;-74
2022/06/03 12:49:37;;;;;;;5.03;3.05;;;;;;;41.33;25.67;99420.20;1652040;85;21104;-75
2022/06/03 12:52:11;;;;;;;7.15;2.60;;;;;;;41.22;22.57;99418.25;1658813;85;21047;-74
2022/06/03 12:55:01;;;;;;;12.00;4.05;;;;;;;42.01;24.37;99417.29;1650090;85;21574;-76
2022/06/03 12:57:39;;;;;;;7.08;2.80;;;;;;;42.81;23.34;99413.92;1579749;89;21092;-76
2022/06/03 13:00:14;;;;;;;5.75;2.80;;;;;;;43.07;21.72;99415.83;1643636;85;21071;-76
2022/06/03 13:02:57;;;;;;;5.62;2.62;;;;;;;42.54;21.64;99430.56;1658174;85;21082;-75
2022/06/03 13:05:48;;;;;;;6.60;3.10;;;;;;;42.80;20.21;99425.95;1660574;85;21100;-82
2022/06/03 13:09:34;;;;;;;8.03;3.20;;;;;;;43.12;21.95;99422.78;1657452;86;21016;-84
2022/06/03 13:11:24;;;;;;;6.62;2.92;;;;;;;43.60;21.45;99416.02;1662490;85;21049;-83
2022/06/03 13:14:08;;;;;;;5.67;2.62;;;;;;;43.55;20.60;99426.05;1656038;85;21121;-84
2022/06/03 13:16:39;;;;;;;5.10;2.90;;;;;;;43.52;19.32;99421.91;1661208;84;21000;-83
2022/06/03 13:19:18;;;;;;;4.47;2.60;;;;;;;43.26;19.80;99409.64;1656118;85;21596;-83
2022/06/03 13:22:09;;;;;;;4.72;3.20;;;;;;;43.73;20.05;99426.38;1660661;85;21031;-84
2022/06/03 13:24:39;;;;;;;5.42;2.95;;;;;;;43.79;20.29;99424.02;1658218;85;21083;-79
2022/06/03 13:27:25;;;;;;;5.15;2.62;;;;;;;43.39;18.50;99416.73;1654765;85;21066;-83
2022/06/03 13:29:57;;;;;;;4.58;2.70;;;;;;;43.95;20.30;99415.50;1650460;85;21572;-79